Time;durP1;ratioP1;P1;durP2;ratioP2;P2;SDS_P1;SDS_P2;PMS_P1;PMS_P2;Temp;Humidity;BMP_temperature;BMP_pressure;BME280_temperature;BME280_humidity;BME280_pressure;Samples;Min_cycle;Max_cycle;Signal;HPM_P1;HPM_P2
2022/06/02 00:01:30;;;;;;;1.98;1.70;;;;;;;12.34;69.54;100134.94;10458708;28;20092;-72
2022/06/02 00:06:46;;;;;;;2.67;1.98;;;;;;;12.49;68.53;100152.84;10456582;28;20053;-72
2022/06/02 00:12:04;;;;;;;2.17;1.58;;;;;;;12.53;68.76;100174.69;10455913;28;20084;-72
2022/06/02 00:17:26;;;;;;;1.67;1.58;;;;;;;12.65;67.96;100158.38;10458278;28;20465;-71
2022/06/02 00:22:41;;;;;;;2.35;2.20;;;;;;;12.54;69.27;100150.88;10456923;28;20482;-72
2022/06/02 00:27:55;;;;;;;2.40;2.17;;;;;;;12.45;70.41;100158.28;10457003;28;20044;-71
2022/06/02 00:33:34;;;;;;;3.05;2.67;;;;;;;12.53;70.34;100153.59;10455282;28;20041;-72
2022/06/02 00:38:38;;;;;;;2.58;2.40;;;;;;;12.20;71.88;100163.59;10455830;28;20060;-72
2022/06/02 00:44:11;;;;;;;2.65;2.45;;;;;;;12.22;71.87;100169.66;10454563;28;20406;-72
2022/06/02 00:49:50;;;;;;;2.70;2.55;;;;;;;12.29;72.42;100150.06;10456607;28;20045;-72
2022/06/02 01:00:45;;;;;;;2.88;2.63;;;;;;;12.29;71.72;100208.91;10464700;28;20087;-72
2022/06/02 01:06:03;;;;;;;3.17;2.70;;;;;;;12.26;73.65;100192.34;10462973;28;20045;-73
2022/06/02 01:11:17;;;;;;;3.42;3.08;;;;;;;12.15;76.63;100153.22;10461824;28;20045;-73
2022/06/02 01:16:27;;;;;;;3.22;3.00;;;;;;;11.87;79.52;100153.34;10463253;28;20045;-73
2022/06/02 01:21:35;;;;;;;2.78;2.63;;;;;;;11.77;80.08;100180.88;10463817;28;20104;-73
2022/06/02 01:26:56;;;;;;;2.83;2.63;;;;;;;11.65;82.00;100205.00;10463606;28;20049;-72
2022/06/02 01:32:04;;;;;;;4.05;2.85;;;;;;;11.63;82.45;100194.50;10463199;28;20055;-72
2022/06/02 01:37:18;;;;;;;3.00;2.60;;;;;;;11.63;83.63;100198.00;10463368;28;20068;-73
2022/06/02 01:42:43;;;;;;;2.30;2.20;;;;;;;11.69;83.55;100198.72;10461099;28;20503;-73
2022/06/02 01:48:12;;;;;;;2.70;2.50;;;;;;;11.52;84.82;100205.41;10462457;28;20045;-73
2022/06/02 01:53:35;;;;;;;2.75;2.55;;;;;;;11.32;86.62;100202.53;10460667;28;20044;-73
2022/06/02 01:59:28;;;;;;;2.28;2.17;;;;;;;11.33;87.04;100202.50;10461427;28;20048;-73
2022/06/02 02:04:45;;;;;;;2.40;2.30;;;;;;;11.22;87.97;100206.38;10445619;28;20510;-73
2022/06/02 02:09:55;;;;;;;;;;;;;;;11.14;88.43;100211.03;10464592;28;20094;-73
2022/06/02 02:15:26;;;;;;;2.63;2.42;;;;;;;11.11;88.60;100215.50;10460976;28;19947;-73
2022/06/02 02:20:53;;;;;;;2.03;1.92;;;;;;;11.12;86.39;100203.19;10374995;28;20062;-73
2022/06/02 02:26:01;;;;;;;2.17;2.08;;;;;;;10.99;86.96;100197.44;10358476;28;20169;-73
2022/06/02 02:31:09;;;;;;;3.03;2.40;;;;;;;11.00;86.30;100204.41;10375401;28;20109;-73
2022/06/02 02:36:36;;;;;;;2.25;2.15;;;;;;;10.91;85.59;100202.06;10374420;28;20499;-73
2022/06/02 02:41:44;;;;;;;2.80;2.55;;;;;;;10.89;85.22;100197.75;10451144;22;20041;-69
2022/06/02 02:47:15;;;;;;;2.40;2.15;;;;;;;10.68;85.64;100209.78;10501360;28;20383;-69
2022/06/02 02:52:31;;;;;;;2.70;2.45;;;;;;;10.56;85.57;100213.63;10500164;28;20173;-69
2022/06/02 02:57:56;;;;;;;3.45;2.92;;;;;;;10.44;86.26;100206.09;10482391;28;20052;-69
2022/06/02 03:03:21;;;;;;;2.90;2.70;;;;;;;10.56;85.50;100213.63;10499476;28;20048;-68
2022/06/02 03:08:35;;;;;;;3.33;2.95;;;;;;;10.30;86.34;100215.22;10499042;28;20076;-68
2022/06/02 03:13:48;;;;;;;3.40;3.10;;;;;;;10.39;86.22;100219.38;10499026;28;20090;-68
2022/06/02 03:19:07;;;;;;;4.63;3.65;;;;;;;10.13;88.79;100227.91;10498760;28;20044;-68
2022/06/02 03:24:39;;;;;;;3.03;2.83;;;;;;;10.04;89.84;100249.19;10498271;28;20453;-68
2022/06/02 03:30:13;;;;;;;3.17;2.97;;;;;;;10.04;89.97;100264.94;10499043;28;20098;-67
2022/06/02 03:35:46;;;;;;;3.90;3.70;;;;;;;10.07;89.19;100260.47;10498439;28;20098;-68
2022/06/02 03:41:10;;;;;;;3.92;3.63;;;;;;;10.02;90.49;100264.13;10496503;28;20118;-69
2022/06/02 03:46:34;;;;;;;3.80;3.50;;;;;;;10.12;87.53;100273.47;10498680;28;20048;-69
2022/06/02 03:51:39;;;;;;;4.03;3.72;;;;;;;10.38;86.12;100274.59;10498020;28;20119;-68
2022/06/02 03:56:51;;;;;;;3.35;3.15;;;;;;;10.57;83.67;100271.41;10497925;28;20048;-68
2022/06/02 04:02:01;;;;;;;3.72;3.42;;;;;;;10.71;82.56;100278.91;10496612;28;20040;-68
2022/06/02 04:07:25;;;;;;;4.18;3.88;;;;;;;10.92;81.74;100277.44;10497969;28;20413;-68
2022/06/02 04:18:12;;;;;;;4.97;4.68;;;;;;;11.00;80.96;100285.97;10497596;28;20052;-69
2022/06/02 04:23:45;;;;;;;3.65;3.45;;;;;;;11.23;80.32;100305.47;10497786;28;20041;-68
2022/06/02 04:28:54;;;;;;;4.45;3.83;;;;;;;11.29;78.45;100307.94;10503808;28;20105;-68
2022/06/02 04:34:23;;;;;;;4.75;4.43;;;;;;;11.36;79.11;100307.66;10505078;28;20043;-69
2022/06/02 04:40:03;;;;;;;4.25;3.95;;;;;;;11.49;77.97;100315.19;10505359;28;20040;-68
2022/06/02 04:45:18;;;;;;;4.75;4.25;;;;;;;11.62;78.42;100321.81;10505469;28;20102;-68
2022/06/02 04:50:30;;;;;;;4.63;4.32;;;;;;;11.71;77.63;100334.69;10504394;28;20105;-68
2022/06/02 04:56:19;;;;;;;3.88;3.58;;;;;;;11.88;75.94;100335.94;10504024;28;20128;-69
2022/06/02 05:01:31;;;;;;;4.50;3.78;;;;;;;11.85;75.63;100340.38;10458554;28;20613;-68
2022/06/02 05:06:46;;;;;;;4.60;4.22;;;;;;;12.11;74.95;100350.09;10457890;28;20057;-68
2022/06/02 05:12:00;;;;;;;4.30;4.00;;;;;;;12.16;75.44;100355.19;10442059;28;20144;-68
2022/06/02 05:17:27;;;;;;;4.72;4.32;;;;;;;12.22;75.19;100365.56;10457631;28;20052;-67
2022/06/02 05:23:05;;;;;;;4.72;4.40;;;;;;;12.51;73.62;100361.06;10456538;28;20057;-69
2022/06/02 05:28:23;;;;;;;4.15;3.95;;;;;;;12.92;72.53;100358.72;10424402;28;20049;-69
2022/06/02 05:33:40;;;;;;;4.28;3.90;;;;;;;13.19;71.68;100367.41;10460637;28;20136;-68
2022/06/02 05:38:55;;;;;;;4.85;4.55;;;;;;;13.57;70.02;100363.38;10502243;28;20055;-68
2022/06/02 05:44:21;;;;;;;4.50;4.10;;;;;;;13.97;68.32;100365.28;10501829;28;20060;-69
2022/06/02 05:49:40;;;;;;;4.50;4.20;;;;;;;14.33;64.72;100362.03;10502385;28;20040;-68
2022/06/02 05:55:17;;;;;;;3.85;3.50;;;;;;;14.48;64.31;100373.78;10502061;28;20407;-68
2022/06/02 06:00:31;;;;;;;3.25;2.97;;;;;;;14.82;62.41;100373.19;10502275;28;20093;-68
2022/06/02 06:05:46;;;;;;;3.28;2.95;;;;;;;15.39;61.39;100379.44;10502008;28;20044;-67
2022/06/02 06:10:57;;;;;;;3.05;2.78;;;;;;;15.23;60.74;100389.00;10500704;28;20056;-67
2022/06/02 06:16:14;;;;;;;3.22;2.92;;;;;;;15.53;60.31;100390.25;10501118;28;20488;-68
2022/06/02 06:21:59;;;;;;;2.80;2.60;;;;;;;15.94;59.07;100394.56;10499413;28;20041;-68
2022/06/02 06:27:12;;;;;;;3.25;3.00;;;;;;;15.78;57.71;100390.00;10495051;28;20064;-69
2022/06/02 06:32:20;;;;;;;2.83;2.63;;;;;;;15.76;57.53;100404.25;10499718;28;20051;-68
2022/06/02 06:37:29;;;;;;;2.92;2.72;;;;;;;15.85;59.50;100404.69;10500417;28;20048;-67
2022/06/02 06:42:51;;;;;;;2.53;2.33;;;;;;;15.95;58.36;100417.53;10499418;28;20046;-67
2022/06/02 06:48:00;;;;;;;2.67;2.47;;;;;;;16.37;57.60;100423.38;10499140;28;20059;-67
2022/06/02 06:53:40;;;;;;;2.13;2.00;;;;;;;16.73;54.79;100429.59;10499010;28;20119;-68
2022/06/02 06:59:03;;;;;;;2.33;2.22;;;;;;;16.38;55.13;100429.56;10499549;28;20440;-67
2022/06/02 07:04:41;;;;;;;2.20;2.10;;;;;;;16.39;54.97;100436.56;10498905;28;20041;-67
2022/06/02 07:09:53;;;;;;;2.17;1.98;;;;;;;16.47;54.07;100437.06;10497315;28;20060;-68
2022/06/02 07:15:33;;;;;;;1.92;1.73;;;;;;;16.93;53.88;100444.50;10498232;28;20102;-67
2022/06/02 07:21:01;;;;;;;1.88;1.77;;;;;;;17.26;50.84;100440.06;10487749;28;20476;-66
2022/06/02 07:26:14;;;;;;;1.60;1.50;;;;;;;16.67;51.64;100445.81;10498747;28;20063;-66
2022/06/02 07:31:43;;;;;;;1.60;1.50;;;;;;;16.47;51.22;100452.09;10497845;28;20090;-67
2022/06/02 07:37:02;;;;;;;2.00;1.75;;;;;;;16.70;51.56;100446.50;10498161;28;20048;-67
2022/06/02 07:42:15;;;;;;;3.03;1.90;;;;;;;16.89;52.99;100447.31;10496528;28;20556;-66
2022/06/02 07:47:38;;;;;;;1.92;1.70;;;;;;;17.17;51.41;100451.19;10497788;28;20044;-66
2022/06/02 07:52:54;;;;;;;1.80;1.70;;;;;;;17.36;52.65;100453.75;10497925;28;20444;-67
2022/06/02 07:58:05;;;;;;;2.47;1.83;;;;;;;17.42;50.25;100468.50;10498178;28;20405;-67
2022/06/02 08:03:09;;;;;;;1.30;1.20;;;;;;;17.87;48.12;100462.53;10503323;28;20045;-68
2022/06/02 08:08:20;;;;;;;1.30;1.20;;;;;;;17.54;48.28;100470.53;10505339;28;20079;-66
2022/06/02 08:13:42;;;;;;;1.20;1.10;;;;;;;16.99;51.13;100476.91;10504314;28;20041;-67
2022/06/02 08:19:06;;;;;;;1.58;1.20;;;;;;;16.59;48.65;100483.34;10506497;28;20056;-66
2022/06/02 08:24:43;;;;;;;1.83;1.05;;;;;;;17.06;49.15;100486.28;10504920;28;20068;-67
2022/06/02 08:29:53;;;;;;;;;;;;;;;17.25;49.86;100485.34;10494942;28;20060;-67
2022/06/02 08:35:06;;;;;;;2.08;1.33;;;;;;;17.22;49.60;100486.38;10469148;28;19924;-67
2022/06/02 08:40:34;;;;;;;1.40;1.17;;;;;;;16.99;49.72;100502.63;10508940;22;20074;-70
2022/06/02 08:45:39;;;;;;;2.20;1.15;;;;;;;17.07;50.70;100498.63;10381402;28;20044;-70
2022/06/02 08:51:04;;;;;;;1.50;0.93;;;;;;;17.75;48.92;100511.06;10378690;28;20458;-72
2022/06/02 08:56:25;;;;;;;1.30;1.08;;;;;;;17.77;50.00;100498.56;10382515;28;20073;-72
2022/06/02 09:01:55;;;;;;;0.88;0.88;;;;;;;17.88;45.38;100512.09;10380322;28;20088;-72
2022/06/02 09:07:15;;;;;;;1.13;1.02;;;;;;;18.52;48.04;100503.22;10379098;28;20046;-72
2022/06/02 09:13:09;;;;;;;0.82;0.80;;;;;;;19.07;44.01;100512.47;10379895;28;20045;-72
2022/06/02 09:18:42;;;;;;;0.88;0.88;;;;;;;19.35;44.07;100515.22;10379835;28;20084;-72
2022/06/02 09:24:51;;;;;;;1.98;1.02;;;;;;;19.86;41.68;100518.31;10379022;28;20042;-72
2022/06/02 09:29:59;;;;;;;1.00;0.90;;;;;;;19.29;45.45;100514.72;10349769;28;20558;-71
2022/06/02 09:35:13;;;;;;;1.50;1.25;;;;;;;18.17;47.45;100533.59;10379170;28;20073;-72
2022/06/02 09:40:53;;;;;;;0.93;0.93;;;;;;;18.31;48.05;100523.03;10361735;28;20046;-71
2022/06/02 09:46:12;;;;;;;0.98;0.93;;;;;;;18.65;45.87;100532.66;10378268;28;20054;-73
2022/06/02 09:51:52;;;;;;;0.82;0.82;;;;;;;17.67;45.77;100523.91;10377699;28;20092;-71
2022/06/02 10:02:49;;;;;;;1.83;1.02;;;;;;;19.23;43.96;100517.75;10378259;28;20054;-71
2022/06/02 10:08:25;;;;;;;1.47;1.10;;;;;;;19.00;47.50;100522.66;10378912;28;20050;-69
2022/06/02 10:13:49;;;;;;;3.20;1.10;;;;;;;19.42;44.42;100513.00;10377518;28;20538;-69
2022/06/02 10:19:08;;;;;;;0.98;0.80;;;;;;;19.65;43.66;100517.81;10377511;28;20049;-70
2022/06/02 10:24:55;;;;;;;1.02;0.80;;;;;;;19.09;44.47;100523.91;10377652;28;20038;-69
2022/06/02 10:30:14;;;;;;;2.05;0.70;;;;;;;19.81;41.00;100512.41;10375431;28;20531;-70
2022/06/02 10:35:34;;;;;;;2.30;0.80;;;;;;;20.75;41.00;100506.41;10377439;28;20483;-69
2022/06/02 10:40:45;;;;;;;0.70;0.60;;;;;;;21.29;40.52;100519.66;10376532;28;20116;-70
2022/06/02 10:46:03;;;;;;;1.10;0.80;;;;;;;20.23;41.29;100517.78;10375606;28;20062;-69
2022/06/02 10:51:40;;;;;;;1.13;0.60;;;;;;;19.77;42.72;100518.03;10376423;28;20121;-69
2022/06/02 10:57:08;;;;;;;0.73;0.70;;;;;;;20.38;40.31;100520.31;10375959;28;20096;-70
2022/06/02 11:02:28;;;;;;;1.00;0.70;;;;;;;19.13;41.28;100533.44;10375611;28;20046;-70
2022/06/02 11:08:18;;;;;;;0.80;0.73;;;;;;;19.42;42.13;100535.19;10375640;28;20522;-71
2022/06/02 11:13:32;;;;;;;1.15;0.60;;;;;;;20.74;39.15;100528.72;10376592;28;20096;-70
2022/06/02 11:19:01;;;;;;;1.30;1.20;;;;;;;20.45;42.36;100523.44;10375398;28;20046;-70
2022/06/02 11:24:13;;;;;;;1.60;0.80;;;;;;;19.94;40.52;100517.81;10373483;28;20112;-70
2022/06/02 11:29:26;;;;;;;0.65;0.63;;;;;;;20.73;40.47;100513.66;10375085;28;20041;-71
2022/06/02 11:34:31;;;;;;;0.70;0.60;;;;;;;21.50;39.08;100525.38;10377068;28;20046;-70
2022/06/02 11:39:41;;;;;;;0.95;0.80;;;;;;;20.69;41.59;100520.16;10375434;28;20115;-70
2022/06/02 11:45:24;;;;;;;1.45;0.85;;;;;;;21.09;40.87;100513.00;10375012;28;20038;-70
2022/06/02 11:50:52;;;;;;;0.95;0.60;;;;;;;21.16;38.43;100507.16;10373062;28;20066;-71
2022/06/02 11:56:11;;;;;;;1.63;0.88;;;;;;;20.67;40.04;100506.91;10375790;28;20100;-71
2022/06/02 12:01:50;;;;;;;1.02;1.02;;;;;;;20.95;40.08;100505.94;10375436;28;20427;-71
2022/06/02 12:07:03;;;;;;;1.02;0.90;;;;;;;21.04;39.20;100507.97;10374631;28;20050;-71
2022/06/02 12:12:41;;;;;;;1.05;0.73;;;;;;;20.44;40.81;100513.72;10374050;28;20046;-71
2022/06/02 12:18:11;;;;;;;1.65;0.90;;;;;;;20.76;40.93;100524.13;10376387;28;20057;-70
2022/06/02 12:23:18;;;;;;;0.93;0.75;;;;;;;20.69;41.40;100521.03;10374579;28;20057;-70
2022/06/02 12:28:42;;;;;;;0.77;0.77;;;;;;;20.98;38.54;100512.88;10374043;28;20511;-70
2022/06/02 12:33:56;;;;;;;1.50;0.60;;;;;;;20.63;39.85;100513.44;10372503;28;20123;-70
2022/06/02 12:39:21;;;;;;;0.70;0.70;;;;;;;20.61;38.90;100505.50;10376269;28;20108;-71
2022/06/02 12:44:54;;;;;;;0.70;0.70;;;;;;;20.85;39.96;100507.47;10373498;28;20053;-71
2022/06/02 12:50:27;;;;;;;0.70;0.70;;;;;;;20.87;39.13;100511.78;10370797;28;20124;-70
2022/06/02 12:55:46;;;;;;;1.00;0.77;;;;;;;21.01;39.00;100504.66;10380632;28;20046;-70
2022/06/02 13:01:25;;;;;;;0.47;0.47;;;;;;;21.23;38.95;100510.25;10381760;28;20088;-70
2022/06/02 13:06:43;;;;;;;0.82;0.60;;;;;;;21.58;39.40;100506.97;10380936;28;20125;-70
2022/06/02 13:11:57;;;;;;;1.75;0.68;;;;;;;21.53;38.68;100506.44;10380109;28;20099;-70
2022/06/02 13:17:17;;;;;;;1.05;0.70;;;;;;;20.79;37.78;100502.56;10381983;28;20093;-70
2022/06/02 13:22:38;;;;;;;0.50;0.50;;;;;;;21.39;37.08;100500.25;10382168;28;20041;-71
2022/06/02 13:28:23;;;;;;;0.52;0.52;;;;;;;21.92;36.96;100500.94;10380398;28;20049;-70
2022/06/02 13:34:07;;;;;;;0.70;0.60;;;;;;;21.64;37.01;100506.53;10380302;28;20069;-71
2022/06/02 13:39:33;;;;;;;0.88;0.88;;;;;;;21.22;37.04;100505.88;10379348;28;20041;-71
2022/06/02 13:44:59;;;;;;;;;;;;;;;21.35;37.88;100504.09;10380397;28;20038;-70
2022/06/02 13:50:15;;;;;;;0.70;0.70;;;;;;;20.49;38.23;100495.59;10378635;28;19921;-71
2022/06/02 14:01:19;;;;;;;0.95;0.65;;;;;;;21.13;38.27;100493.97;10378207;28;20275;-71
2022/06/02 14:06:26;;;;;;;0.80;0.80;;;;;;;21.03;36.76;100500.03;10379932;28;20041;-70
2022/06/02 14:11:44;;;;;;;1.48;0.60;;;;;;;20.94;38.30;100495.31;10378966;28;20050;-70
2022/06/02 14:16:53;;;;;;;0.52;0.50;;;;;;;21.05;37.29;100487.44;10378929;28;20503;-70
2022/06/02 14:22:26;;;;;;;1.30;0.70;;;;;;;20.85;36.87;100481.66;10377268;28;20132;-70
2022/06/02 14:28:04;;;;;;;0.57;0.50;;;;;;;20.34;38.12;100488.59;10379590;28;20578;-71
2022/06/02 14:33:29;;;;;;;0.35;0.35;;;;;;;20.96;36.85;100488.06;10376798;28;20042;-69
2022/06/02 14:39:02;;;;;;;0.65;0.50;;;;;;;20.61;36.60;100496.63;10377377;28;20088;-71
2022/06/02 14:44:18;;;;;;;1.85;0.63;;;;;;;21.51;36.79;100495.84;10437024;22;20106;-69
2022/06/02 14:49:38;;;;;;;;;;;;;;;20.87;37.24;100494.88;10459304;28;20129;-70
2022/06/02 14:55:01;;;;;;;0.40;0.40;;;;;;;20.49;37.99;100500.09;10457772;28;19920;-70
2022/06/02 15:00:13;;;;;;;0.47;0.45;;;;;;;21.16;35.88;100491.09;10457956;28;20045;-70
2022/06/02 15:05:45;;;;;;;0.40;0.30;;;;;;;21.33;36.51;100499.78;10458031;28;20444;-70
2022/06/02 15:11:03;;;;;;;0.68;0.35;;;;;;;21.12;36.61;100494.94;10457168;28;20379;-70
2022/06/02 15:16:40;;;;;;;1.13;0.38;;;;;;;21.21;36.03;100485.44;10456790;28;20487;-70
2022/06/02 15:21:58;;;;;;;1.77;0.35;;;;;;;22.14;34.02;100483.38;10457287;28;20060;-70
2022/06/02 15:27:12;;;;;;;0.60;0.30;;;;;;;21.82;35.18;100491.84;10457051;28;20045;-70
2022/06/02 15:32:43;;;;;;;1.58;0.30;;;;;;;22.19;35.10;100472.34;10457089;28;20036;-70
2022/06/02 15:38:04;;;;;;;0.65;0.35;;;;;;;21.98;34.58;100480.91;10456517;28;20045;-70
2022/06/02 15:43:34;;;;;;;0.40;0.30;;;;;;;21.55;35.63;100481.28;10456314;28;20099;-70
2022/06/02 15:49:11;;;;;;;1.23;0.40;;;;;;;22.87;31.83;100466.31;10454867;28;20075;-70
2022/06/02 15:54:40;;;;;;;0.30;0.30;;;;;;;22.19;33.51;100473.19;10455637;28;20095;-70
2022/06/02 15:59:59;;;;;;;1.10;0.40;;;;;;;22.17;34.66;100461.72;10456179;28;20052;-71
2022/06/02 16:05:31;;;;;;;0.63;0.40;;;;;;;21.01;36.14;100476.09;10455650;28;20575;-70
2022/06/02 16:16:33;;;;;;;0.30;0.22;;;;;;;21.67;35.93;100464.38;10456055;28;20041;-71
2022/06/02 16:22:02;;;;;;;0.60;0.50;;;;;;;20.63;37.43;100460.00;10459047;28;20076;-70
2022/06/02 16:27:22;;;;;;;0.45;0.30;;;;;;;19.77;37.99;100457.53;10463442;28;20052;-70
2022/06/02 16:32:57;;;;;;;0.85;0.35;;;;;;;19.72;37.66;100466.78;10463195;28;20045;-69
2022/06/02 16:38:30;;;;;;;0.47;0.40;;;;;;;19.81;37.30;100463.53;10463233;28;20041;-70
2022/06/02 16:43:55;;;;;;;1.73;0.40;;;;;;;19.74;36.38;100473.72;10461996;28;20052;-69
2022/06/02 16:49:16;;;;;;;0.73;0.40;;;;;;;19.73;37.60;100471.16;10463421;28;20060;-69
2022/06/02 16:54:44;;;;;;;1.38;0.47;;;;;;;19.60;37.43;100463.91;10462711;28;20044;-69
2022/06/02 17:00:08;;;;;;;0.38;0.38;;;;;;;19.26;38.60;100470.47;10462372;28;20045;-69
2022/06/02 17:05:41;;;;;;;1.25;0.40;;;;;;;18.93;38.76;100468.00;10461039;28;20048;-69
2022/06/02 17:10:49;;;;;;;0.50;0.30;;;;;;;19.43;37.61;100482.72;10460731;28;20052;-69
2022/06/02 17:16:34;;;;;;;1.02;0.80;;;;;;;19.26;39.00;100482.94;10462815;28;20063;-69
2022/06/02 17:22:07;;;;;;;1.65;0.50;;;;;;;18.94;38.89;100485.69;10461567;28;20425;-69
2022/06/02 17:27:32;;;;;;;0.93;0.90;;;;;;;18.90;40.32;100492.16;10462008;28;20037;-69
2022/06/02 17:32:52;;;;;;;0.55;0.52;;;;;;;18.89;39.43;100493.09;10461080;28;20045;-69
2022/06/02 17:38:16;;;;;;;1.45;0.40;;;;;;;19.17;39.28;100497.66;10461076;28;20049;-69
2022/06/02 17:43:31;;;;;;;1.00;0.40;;;;;;;18.74;40.18;100510.00;10460757;28;20486;-70
2022/06/02 17:49:09;;;;;;;1.77;0.73;;;;;;;18.65;39.51;100500.69;10460325;28;20048;-69
2022/06/02 17:54:29;;;;;;;0.50;0.50;;;;;;;18.46;39.68;100503.56;10459962;28;20531;-68
2022/06/02 17:59:47;;;;;;;0.60;0.40;;;;;;;18.31;39.98;100504.41;10460535;28;20049;-71
2022/06/02 18:05:10;;;;;;;0.90;0.40;;;;;;;18.24;40.50;100505.69;10460011;28;20123;-71
2022/06/02 18:10:39;;;;;;;0.50;0.50;;;;;;;18.00;41.92;100521.22;10460248;28;20457;-71
2022/06/02 18:16:02;;;;;;;0.93;0.75;;;;;;;17.94;41.71;100514.44;10460856;28;20478;-71
2022/06/02 18:21:29;;;;;;;0.70;0.57;;;;;;;17.69;42.02;100512.22;10459427;28;20135;-70
2022/06/02 18:26:51;;;;;;;0.75;0.50;;;;;;;17.65;42.81;100508.00;10457648;28;20048;-70
2022/06/02 18:32:19;;;;;;;0.85;0.50;;;;;;;17.55;44.10;100496.16;10458724;28;20547;-70
2022/06/02 18:37:36;;;;;;;1.42;0.75;;;;;;;17.38;43.88;100505.88;10458724;28;20071;-70
2022/06/02 18:43:20;;;;;;;0.60;0.60;;;;;;;17.32;44.21;100521.28;10458257;28;20048;-70
2022/06/02 18:48:43;;;;;;;1.45;0.70;;;;;;;17.26;44.95;100521.59;10371632;28;20057;-70
2022/06/02 18:54:05;;;;;;;1.00;0.70;;;;;;;17.09;45.61;100526.00;10371852;28;20116;-70
2022/06/02 18:59:09;;;;;;;1.35;0.60;;;;;;;16.94;46.07;100518.78;10371692;28;20062;-70
2022/06/02 19:04:29;;;;;;;0.45;0.40;;;;;;;16.63;47.54;100522.06;10365047;28;20057;-70
2022/06/02 19:15:35;;;;;;;2.28;1.05;;;;;;;16.94;46.82;100540.03;10352932;28;20463;-70
2022/06/02 19:20:58;;;;;;;2.15;0.80;;;;;;;16.76;46.89;100543.59;10363737;28;20435;-70
2022/06/02 19:26:14;;;;;;;1.42;0.70;;;;;;;16.52;48.30;100550.94;10416888;28;20048;-70
2022/06/02 19:32:09;;;;;;;1.30;0.95;;;;;;;16.12;50.01;100552.81;10456708;28;20460;-70
2022/06/02 19:37:23;;;;;;;2.30;0.70;;;;;;;16.10;50.45;100552.88;10329623;28;20409;-70
2022/06/02 19:42:40;;;;;;;1.00;0.90;;;;;;;15.91;50.10;100561.75;10329538;28;20628;-71
2022/06/02 19:47:54;;;;;;;1.67;0.98;;;;;;;15.92;49.98;100564.31;10329182;28;20050;-70
2022/06/02 19:53:19;;;;;;;1.55;1.00;;;;;;;15.53;51.89;100562.47;10313283;28;20464;-70
2022/06/02 19:58:31;;;;;;;1.73;1.00;;;;;;;14.99;54.28;100553.31;10336284;28;20058;-70
2022/06/02 20:03:44;;;;;;;1.98;1.23;;;;;;;15.23;53.40;100555.84;10337419;28;20117;-70
2022/06/02 20:08:54;;;;;;;1.98;1.15;;;;;;;15.23;52.75;100561.16;10361325;28;20057;-70
2022/06/02 20:14:21;;;;;;;1.00;1.00;;;;;;;14.83;53.98;100552.22;10422633;28;20511;-70
2022/06/02 20:19:45;;;;;;;2.58;1.10;;;;;;;14.63;55.29;100551.28;10421369;28;20125;-70
2022/06/02 20:24:53;;;;;;;2.00;1.20;;;;;;;14.45;55.60;100551.97;10422847;28;20398;-70
2022/06/02 20:30:06;;;;;;;2.97;1.50;;;;;;;14.43;55.62;100567.03;10422713;28;20050;-71
2022/06/02 20:35:19;;;;;;;2.05;1.60;;;;;;;14.26;55.89;100573.00;10422542;28;20116;-70
2022/06/02 20:40:28;;;;;;;2.58;1.50;;;;;;;14.13;56.19;100572.59;10422237;28;20049;-70
2022/06/02 20:45:59;;;;;;;2.25;1.60;;;;;;;13.91;56.88;100576.97;10502299;22;20058;-71
2022/06/02 20:51:06;;;;;;;2.33;1.75;;;;;;;13.65;58.31;100574.41;10504282;28;20416;-70
2022/06/02 20:56:13;;;;;;;1.85;1.38;;;;;;;13.85;56.78;100588.59;10504074;28;20068;-70
2022/06/02 21:01:34;;;;;;;1.67;1.40;;;;;;;13.69;57.17;100587.44;10504169;28;20567;-70
2022/06/02 21:06:47;;;;;;;2.50;1.48;;;;;;;13.65;57.66;100584.97;10504550;28;20119;-70
2022/06/02 21:12:15;;;;;;;2.25;1.38;;;;;;;13.50;57.55;100579.31;10506836;28;20079;-71
2022/06/02 21:17:32;;;;;;;3.40;2.30;;;;;;;13.73;56.93;100580.28;10504371;28;20041;-69
2022/06/02 21:22:44;;;;;;;3.25;2.33;;;;;;;13.36;58.36;100589.47;10504893;28;20048;-69
2022/06/02 21:27:47;;;;;;;4.28;3.03;;;;;;;13.27;58.81;100590.66;10486228;28;20047;-70
2022/06/02 21:33:01;;;;;;;3.78;3.33;;;;;;;13.12;59.87;100589.38;10505856;28;20048;-70
2022/06/02 21:38:05;;;;;;;5.15;4.35;;;;;;;13.10;60.13;100588.56;10504112;28;20044;-70
2022/06/02 21:43:23;;;;;;;5.90;4.75;;;;;;;13.03;60.52;100597.59;10503928;28;20040;-71
2022/06/02 21:48:46;;;;;;;5.88;4.70;;;;;;;12.90;61.62;100601.53;10504201;28;20044;-70
2022/06/02 21:53:48;;;;;;;6.32;5.13;;;;;;;12.60;63.10;100595.47;10503053;28;20111;-69
2022/06/02 21:59:14;;;;;;;7.35;5.43;;;;;;;12.57;63.17;100600.81;10501303;28;20504;-70
2022/06/02 22:04:21;;;;;;;5.28;4.13;;;;;;;12.71;62.89;100600.41;10501219;28;20044;-71
2022/06/02 22:09:28;;;;;;;4.22;3.75;;;;;;;12.65;62.84;100597.94;10502454;28;20048;-70
2022/06/02 22:14:45;;;;;;;5.97;3.40;;;;;;;12.35;64.52;100596.22;10501899;28;20119;-70
2022/06/02 22:20:00;;;;;;;4.53;4.13;;;;;;;12.08;65.95;100602.28;10503150;28;20417;-70
2022/06/02 22:25:07;;;;;;;5.00;3.42;;;;;;;12.04;66.53;100598.91;10501361;28;20041;-70
2022/06/02 22:30:27;;;;;;;5.05;3.78;;;;;;;12.02;66.93;100610.38;10483088;28;20053;-70
2022/06/02 22:35:50;;;;;;;3.83;3.42;;;;;;;11.90;67.08;100610.72;10500558;28;20036;-70
2022/06/02 22:41:14;;;;;;;3.33;2.88;;;;;;;11.98;66.89;100612.22;10501954;28;20045;-70
2022/06/02 22:46:16;;;;;;;5.40;3.50;;;;;;;12.00;67.26;100607.78;10500484;28;20046;-70
2022/06/02 22:51:41;;;;;;;4.32;3.60;;;;;;;11.96;67.30;100621.97;10500196;28;20115;-70
2022/06/02 22:57:10;;;;;;;3.17;2.80;;;;;;;11.79;68.13;100621.53;10498436;28;20131;-70
2022/06/02 23:02:11;;;;;;;4.20;2.97;;;;;;;11.67;68.68;100617.44;10501369;28;20060;-70
2022/06/02 23:07:31;;;;;;;3.38;2.80;;;;;;;11.78;68.22;100614.53;10500297;28;20039;-69
2022/06/02 23:12:51;;;;;;;3.92;2.97;;;;;;;11.63;69.04;100621.94;10497831;28;20050;-70
2022/06/02 23:17:56;;;;;;;4.18;2.95;;;;;;;11.54;69.45;100627.44;10499195;28;20114;-70
2022/06/02 23:23:15;;;;;;;4.00;3.47;;;;;;;11.80;69.20;100634.66;10499493;28;20516;-70
2022/06/02 23:28:26;;;;;;;3.67;2.95;;;;;;;11.41;69.42;100630.44;10499852;28;20051;-70
2022/06/02 23:33:55;;;;;;;5.30;2.65;;;;;;;11.33;69.64;100622.72;10498324;28;20051;-70
2022/06/02 23:39:36;;;;;;;2.45;2.20;;;;;;;10.92;71.88;100611.47;10497351;28;20044;-70
2022/06/02 23:45:19;;;;;;;3.60;3.00;;;;;;;10.83;72.78;100609.91;10499859;28;20490;-70
2022/06/02 23:50:54;;;;;;;4.47;3.70;;;;;;;10.72;73.87;100611.09;10499133;28;20402;-70
2022/06/02 23:56:38;;;;;;;3.95;3.53;;;;;;;11.24;71.64;100615.91;10498865;28;20051;-69
